createdAt,value
2018-09-17T00:00:28.285Z,101570.56
2018-09-17T00:02:55.790Z,101559.00
2018-09-17T00:05:23.233Z,101551.08
2018-09-17T00:07:50.708Z,101547.88
2018-09-17T00:10:18.152Z,101539.63
2018-09-17T00:12:45.623Z,101552.59
2018-09-17T00:15:13.082Z,101559.15
2018-09-17T00:17:40.569Z,101557.62
2018-09-17T00:20:08.018Z,101564.01
2018-09-17T00:22:35.501Z,101561.83
2018-09-17T00:25:02.956Z,101547.38
2018-09-17T00:27:30.422Z,101535.08
2018-09-17T00:29:57.952Z,101527.52
2018-09-17T00:32:25.410Z,101525.49
2018-09-17T00:34:52.889Z,101529.53
2018-09-17T00:37:20.330Z,101528.20
2018-09-17T00:39:47.878Z,101527.68
2018-09-17T00:42:15.338Z,101521.47
2018-09-17T00:44:42.721Z,101513.38
2018-09-17T00:47:10.129Z,101512.22
2018-09-17T00:49:37.618Z,101517.27
2018-09-17T00:52:05.073Z,101506.16
2018-09-17T00:54:32.553Z,101509.87
2018-09-17T00:56:59.990Z,101501.47
2018-09-17T00:59:28.154Z,101502.47
2018-09-17T01:01:55.698Z,101497.09
2018-09-17T01:04:23.124Z,101493.56
2018-09-17T01:06:51.754Z,101489.19
2018-09-17T01:09:24.946Z,101494.91
2018-09-17T01:11:52.379Z,101502.13
2018-09-17T01:14:20.697Z,101505.50
2018-09-17T01:16:48.132Z,101512.73
2018-09-17T01:19:15.616Z,101511.89
2018-09-17T01:21:43.059Z,101515.42
2018-09-17T01:24:10.495Z,101521.28
2018-09-17T01:26:37.968Z,101524.14
2018-09-17T01:29:05.448Z,101516.58
2018-09-17T01:31:32.866Z,101514.88
2018-09-17T01:34:00.440Z,101517.75
2018-09-17T01:36:27.814Z,101523.10
2018-09-17T01:38:55.343Z,101517.73
2018-09-17T01:41:22.765Z,101522.80
2018-09-17T01:43:50.213Z,101522.82
2018-09-17T01:46:17.903Z,101523.52
2018-09-17T01:48:45.418Z,101528.91
2018-09-17T01:51:12.949Z,101531.61
2018-09-17T01:53:40.514Z,101526.73
2018-09-17T01:56:07.967Z,101525.88
2018-09-17T01:58:35.425Z,101529.41
2018-09-17T02:01:02.883Z,101526.03
2018-09-17T02:03:30.416Z,101520.66
2018-09-17T02:05:57.932Z,101530.08
2018-09-17T02:08:25.485Z,101531.25
2018-09-17T02:10:53.011Z,101530.58
2018-09-17T02:13:20.621Z,101537.47
2018-09-17T02:15:48.058Z,101532.93
2018-09-17T02:18:15.525Z,101534.24
2018-09-17T02:20:42.973Z,101531.38
2018-09-17T02:23:10.437Z,101528.69
2018-09-17T02:25:37.962Z,101536.45
2018-09-17T02:28:05.457Z,101539.30
2018-09-17T02:30:32.937Z,101538.95
2018-09-17T02:33:00.401Z,101541.15
2018-09-17T02:35:27.909Z,101531.73
2018-09-17T02:37:55.374Z,101530.38
2018-09-17T02:40:22.929Z,101535.94
2018-09-17T02:42:50.744Z,101535.78
2018-09-17T02:45:19.130Z,101529.38
2018-09-17T02:47:47.098Z,101535.27
2018-09-17T02:50:14.517Z,101538.47
2018-09-17T02:52:41.993Z,101536.78
2018-09-17T02:55:09.485Z,101534.26
2018-09-17T02:57:37.434Z,101519.95
2018-09-17T03:00:05.664Z,101513.06
2018-09-17T03:02:33.162Z,101501.10
2018-09-17T03:05:00.534Z,101506.80
2018-09-17T03:07:28.048Z,101510.54
2018-09-17T03:09:55.629Z,101507.17
2018-09-17T03:12:23.022Z,101504.49
2018-09-17T03:14:50.514Z,101496.42
2018-09-17T03:17:18.493Z,101497.62
2018-09-17T03:19:46.049Z,101498.63
2018-09-17T03:22:14.074Z,101488.16
2018-09-17T03:24:41.617Z,101492.91
2018-09-17T03:27:09.261Z,101501.99
2018-09-17T03:29:36.698Z,101499.64
2018-09-17T03:32:04.272Z,101495.27
2018-09-17T03:34:31.662Z,101504.83
2018-09-17T03:36:59.193Z,101511.89
2018-09-17T03:39:26.726Z,101520.47
2018-09-17T03:41:54.164Z,101520.30
2018-09-17T03:44:22.106Z,101520.47
2018-09-17T03:46:49.524Z,101520.14
2018-09-17T03:49:16.984Z,101524.84
2018-09-17T03:51:44.417Z,101518.45
2018-09-17T03:54:12.578Z,101514.59
2018-09-17T03:56:40.036Z,101517.11
2018-09-17T03:59:07.522Z,101510.72
2018-09-17T04:01:35.499Z,101512.05
2018-09-17T04:04:02.863Z,101506.34
2018-09-17T04:06:30.278Z,101510.72
2018-09-17T04:08:57.701Z,101509.40
2018-09-17T04:11:25.158Z,101512.56
2018-09-17T04:13:52.618Z,101519.30
2018-09-17T04:16:20.036Z,101514.41
2018-09-17T04:18:47.485Z,101513.74
2018-09-17T04:21:15.053Z,101505.53
2018-09-17T04:23:42.493Z,101516.80
2018-09-17T04:26:11.021Z,101513.77
2018-09-17T04:28:38.647Z,101523.70
2018-09-17T04:31:06.257Z,101528.23
2018-09-17T04:33:39.252Z,101530.09
2018-09-17T04:36:07.025Z,101537.98
2018-09-17T04:38:34.513Z,101538.15
2018-09-17T04:41:02.283Z,101537.98
2018-09-17T04:43:29.812Z,101543.32
2018-09-17T04:45:58.035Z,101536.62
2018-09-17T04:48:25.483Z,101538.95
2018-09-17T04:50:53.018Z,101537.45
2018-09-17T04:53:20.596Z,101535.08
2018-09-17T04:55:48.803Z,101536.09
2018-09-17T04:58:16.296Z,101537.44
2018-09-17T05:00:43.741Z,101539.95
2018-09-17T05:03:11.185Z,101538.45
2018-09-17T05:05:38.587Z,101535.59
2018-09-17T05:08:06.162Z,101543.47
2018-09-17T05:10:34.063Z,101555.42
2018-09-17T05:13:01.548Z,101552.88
2018-09-17T05:15:28.908Z,101556.92
2018-09-17T05:17:56.359Z,101553.73
2018-09-17T05:20:23.825Z,101547.67
2018-09-17T05:22:51.299Z,101544.64
2018-09-17T05:25:18.688Z,101539.92
2018-09-17T05:27:46.177Z,101551.19
2018-09-17T05:30:13.689Z,101547.66
2018-09-17T05:32:41.121Z,101545.47
2018-09-17T05:35:08.694Z,101545.97
2018-09-17T05:37:36.118Z,101546.31
2018-09-17T05:40:03.585Z,101543.64
2018-09-17T05:42:31.536Z,101543.31
2018-09-17T05:44:59.025Z,101539.28
2018-09-17T05:47:27.114Z,101540.81
2018-09-17T05:49:54.628Z,101542.49
2018-09-17T05:52:22.077Z,101545.36
2018-09-17T05:54:49.536Z,101548.22
2018-09-17T05:57:17.005Z,101544.02
2018-09-17T05:59:44.682Z,101548.87
2018-09-17T06:02:12.089Z,101555.30
2018-09-17T06:04:39.534Z,101550.27
2018-09-17T06:07:07.116Z,101551.62
2018-09-17T06:09:34.544Z,101549.77
2018-09-17T06:12:02.030Z,101554.64
2018-09-17T06:14:29.552Z,101554.81
2018-09-17T06:16:57.131Z,101552.47
2018-09-17T06:19:24.880Z,101557.52
2018-09-17T06:21:52.309Z,101562.73
2018-09-17T06:24:20.697Z,101569.63
2018-09-17T06:26:48.968Z,101566.74
2018-09-17T06:29:16.671Z,101568.93
2018-09-17T06:31:44.204Z,101563.72
2018-09-17T06:34:11.627Z,101563.72
2018-09-17T06:36:39.121Z,101565.74
2018-09-17T06:39:07.908Z,101570.80
2018-09-17T06:41:35.387Z,101572.95
2018-09-17T06:44:03.041Z,101573.11
2018-09-17T06:46:30.529Z,101564.53
2018-09-17T06:48:58.749Z,101571.92
2018-09-17T06:51:26.259Z,101578.95
2018-09-17T06:53:53.842Z,101572.20
2018-09-17T06:56:21.447Z,101575.71
2018-09-17T06:58:49.188Z,101581.92
2018-09-17T07:01:16.894Z,101582.38
2018-09-17T07:03:44.430Z,101583.02
2018-09-17T07:06:11.909Z,101582.47
2018-09-17T07:08:39.355Z,101582.55
2018-09-17T07:11:08.245Z,101584.20
2018-09-17T07:13:35.783Z,101588.64
2018-09-17T07:16:03.313Z,101582.33
2018-09-17T07:18:30.783Z,101573.63
2018-09-17T07:20:58.282Z,101578.14
2018-09-17T07:23:25.807Z,101576.86
2018-09-17T07:25:53.449Z,101577.02
2018-09-17T07:28:20.928Z,101584.40
2018-09-17T07:30:48.684Z,101588.64
2018-09-17T07:33:16.178Z,101589.08
2018-09-17T07:35:43.750Z,101584.03
2018-09-17T07:38:11.266Z,101584.02
2018-09-17T07:40:39.143Z,101585.97
2018-09-17T07:43:06.595Z,101587.64
2018-09-17T07:45:34.167Z,101593.33
2018-09-17T07:48:01.586Z,101595.68
2018-09-17T07:50:28.999Z,101599.50
2018-09-17T07:52:56.558Z,101595.68
2018-09-17T07:55:24.131Z,101599.46
2018-09-17T07:57:52.190Z,101600.44
2018-09-17T08:00:19.802Z,101602.16
2018-09-17T08:02:49.084Z,101597.81
2018-09-17T08:05:16.606Z,101595.38
2018-09-17T08:07:44.189Z,101600.11
2018-09-17T08:10:16.333Z,101591.50
2018-09-17T08:12:43.752Z,101595.27
2018-09-17T08:15:11.234Z,101596.16
2018-09-17T08:17:38.789Z,101592.83
2018-09-17T08:20:06.433Z,101591.36
2018-09-17T08:22:33.959Z,101589.23
2018-09-17T08:25:01.384Z,101597.69
2018-09-17T08:27:28.858Z,101596.84
2018-09-17T08:29:56.482Z,101595.43
2018-09-17T08:32:23.926Z,101598.94
2018-09-17T08:34:51.456Z,101600.09
2018-09-17T08:37:18.972Z,101597.30
2018-09-17T08:39:46.567Z,101596.46
2018-09-17T08:42:15.371Z,101595.97
2018-09-17T08:44:43.001Z,101601.12
2018-09-17T08:47:10.515Z,101599.39
2018-09-17T08:49:38.858Z,101597.00
2018-09-17T08:52:06.340Z,101598.47
2018-09-17T08:54:38.478Z,101603.84
2018-09-17T08:57:11.720Z,101598.14
2018-09-17T08:59:44.853Z,101589.69
2018-09-17T09:02:15.568Z,101597.05
2018-09-17T09:04:48.603Z,101590.42
2018-09-17T09:07:21.580Z,101592.98
2018-09-17T09:09:51.225Z,101596.37
2018-09-17T09:12:24.841Z,101593.18
2018-09-17T09:14:55.136Z,101595.22
2018-09-17T09:17:22.709Z,101590.34
2018-09-17T09:19:50.141Z,101593.34
2018-09-17T09:22:17.631Z,101588.34
2018-09-17T09:24:45.168Z,101588.70
2018-09-17T09:27:12.638Z,101584.23
2018-09-17T09:29:40.567Z,101577.39
2018-09-17T09:32:08.006Z,101580.44
2018-09-17T09:34:35.498Z,101581.72
2018-09-17T09:37:03.041Z,101581.28
2018-09-17T09:39:30.541Z,101584.31
2018-09-17T09:41:57.984Z,101576.94
2018-09-17T09:44:25.466Z,101576.53
2018-09-17T09:46:53.491Z,101582.77
2018-09-17T09:49:21.060Z,101571.33
2018-09-17T09:51:48.521Z,101577.05
2018-09-17T09:54:15.936Z,101572.34
2018-09-17T09:56:43.419Z,101573.00
2018-09-17T09:59:11.164Z,101565.64
2018-09-17T10:01:44.264Z,101562.17
2018-09-17T10:04:17.193Z,101564.66
2018-09-17T10:06:44.677Z,101563.14
2018-09-17T10:09:17.661Z,101560.52
2018-09-17T10:11:51.264Z,101566.72
2018-09-17T10:14:24.113Z,101570.07
2018-09-17T10:16:57.063Z,101567.62
2018-09-17T10:19:25.248Z,101569.12
2018-09-17T10:21:52.688Z,101564.17
2018-09-17T10:24:20.157Z,101569.00
2018-09-17T10:26:47.838Z,101564.31
2018-09-17T10:29:16.086Z,101561.38
2018-09-17T10:31:43.873Z,101561.80
2018-09-17T10:34:11.420Z,101561.05
2018-09-17T10:36:38.855Z,101556.03
2018-09-17T10:39:08.763Z,101545.57
2018-09-17T10:41:36.366Z,101554.98
2018-09-17T10:44:04.030Z,101552.27
2018-09-17T10:46:31.618Z,101556.66
2018-09-17T10:48:59.027Z,101547.56
2018-09-17T10:51:27.248Z,101548.30
2018-09-17T10:53:55.012Z,101546.83
2018-09-17T10:56:22.569Z,101545.44
2018-09-17T10:58:49.959Z,101545.33
2018-09-17T11:01:17.484Z,101542.11
2018-09-17T11:03:44.978Z,101536.77
2018-09-17T11:06:12.762Z,101528.39
2018-09-17T11:08:40.253Z,101529.33
2018-09-17T11:11:08.490Z,101525.36
2018-09-17T11:13:35.954Z,101522.31
2018-09-17T11:16:03.970Z,101525.30
2018-09-17T11:18:31.784Z,101524.44
2018-09-17T11:20:59.211Z,101518.92
2018-09-17T11:23:26.673Z,101522.52
2018-09-17T11:25:54.109Z,101524.11
2018-09-17T11:28:21.590Z,101513.52
2018-09-17T11:30:49.066Z,101519.05
2018-09-17T11:33:16.497Z,101516.70
2018-09-17T11:35:44.091Z,101511.98
2018-09-17T11:38:11.815Z,101509.73
2018-09-17T11:40:39.239Z,101517.59
2018-09-17T11:43:06.793Z,101509.30
2018-09-17T11:45:34.247Z,101505.04
2018-09-17T11:48:01.714Z,101503.98
2018-09-17T11:50:29.645Z,101498.93
2018-09-17T11:52:58.006Z,101498.91
2018-09-17T11:55:25.426Z,101493.89
2018-09-17T11:57:53.105Z,101494.45
2018-09-17T12:00:25.962Z,101493.27
2018-09-17T12:02:59.026Z,101490.02
2018-09-17T12:05:32.113Z,101487.98
2018-09-17T12:07:59.679Z,101483.20
2018-09-17T12:10:27.815Z,101475.41
2018-09-17T12:12:55.244Z,101483.51
2018-09-17T12:15:22.767Z,101480.64
2018-09-17T12:17:50.226Z,101476.63
2018-09-17T12:20:17.731Z,101474.37
2018-09-17T12:22:45.298Z,101471.41
2018-09-17T12:25:13.474Z,101466.45
2018-09-17T12:27:41.873Z,101463.34
2018-09-17T12:30:09.335Z,101464.67
2018-09-17T12:32:36.802Z,101459.92
2018-09-17T12:35:04.323Z,101462.42
2018-09-17T12:37:31.856Z,101451.28
2018-09-17T12:39:59.397Z,101449.58
2018-09-17T12:42:26.916Z,101446.05
2018-09-17T12:44:54.354Z,101439.23
2018-09-17T12:47:21.769Z,101443.06
2018-09-17T12:49:49.187Z,101436.05
